Time;durP1;ratioP1;P1;durP2;ratioP2;P2;SDS_P1;SDS_P2;PMS_P1;PMS_P2;Temp;Humidity;BMP_temperature;BMP_pressure;BME280_temperature;BME280_humidity;BME280_pressure;Samples;Min_cycle;Max_cycle;Signal;HPM_P1;HPM_P2
2024/03/20 00:01:32;;;;;;;15.75;9.18;;;;;;;6.91;100.00;101314.22;5049228;28;20907;-84
2024/03/20 00:04:03;;;;;;;19.55;9.88;;;;;;;6.84;100.00;101316.25;5057792;28;20417;-85
2024/03/20 00:06:33;;;;;;;17.17;9.63;;;;;;;6.93;100.00;101322.09;5038764;28;20450;-85
2024/03/20 00:09:02;;;;;;;18.35;9.60;;;;;;;6.92;100.00;101312.34;5060281;28;20428;-85
2024/03/20 00:11:30;;;;;;;15.57;9.43;;;;;;;6.85;100.00;101311.66;5064823;28;21091;-84
2024/03/20 00:13:58;;;;;;;15.95;9.40;;;;;;;6.90;100.00;101306.34;5060971;28;21061;-84
2024/03/20 00:16:25;;;;;;;16.63;9.75;;;;;;;6.83;100.00;101309.19;5050081;28;20425;-85
2024/03/20 00:18:52;;;;;;;17.83;9.70;;;;;;;6.84;100.00;101307.31;5063572;28;20438;-84
2024/03/20 00:21:19;;;;;;;15.73;9.35;;;;;;;6.80;100.00;101296.16;5061538;28;20751;-84
2024/03/20 00:23:47;;;;;;;16.70;9.02;;;;;;;6.81;100.00;101306.72;5057929;28;20417;-84
2024/03/20 00:26:14;;;;;;;16.90;9.43;;;;;;;6.75;100.00;101302.28;5061174;28;20427;-84
2024/03/20 00:28:43;;;;;;;15.77;9.48;;;;;;;6.73;100.00;101304.38;5042799;28;20417;-84
2024/03/20 00:31:11;;;;;;;15.90;9.38;;;;;;;6.73;100.00;101301.69;5049978;28;20435;-85
2024/03/20 00:33:38;;;;;;;15.18;9.20;;;;;;;6.86;100.00;101295.16;5044610;28;20427;-85
2024/03/20 00:36:06;;;;;;;16.42;9.55;;;;;;;6.69;100.00;101297.81;5056084;28;20425;-85
2024/03/20 00:38:34;;;;;;;16.73;9.88;;;;;;;6.75;100.00;101287.91;5064198;28;20448;-84
2024/03/20 00:41:03;;;;;;;15.40;9.38;;;;;;;6.70;100.00;101291.34;5057297;28;20415;-84
2024/03/20 00:43:31;;;;;;;16.48;9.50;;;;;;;6.64;100.00;101284.16;5041333;28;21150;-85
2024/03/20 00:46:00;;;;;;;15.68;9.35;;;;;;;6.64;100.00;101289.59;5065007;28;20423;-85
2024/03/20 00:48:27;;;;;;;16.40;9.23;;;;;;;6.64;100.00;101292.28;5062560;28;20412;-84
2024/03/20 00:50:55;;;;;;;16.13;9.43;;;;;;;6.71;100.00;101287.59;5062532;28;20436;-84
2024/03/20 00:53:22;;;;;;;16.85;9.75;;;;;;;6.68;100.00;101287.22;5043599;28;20891;-84
2024/03/20 00:55:50;;;;;;;16.17;9.82;;;;;;;6.64;100.00;101276.91;5058142;28;20413;-85
2024/03/20 00:58:17;;;;;;;18.23;9.57;;;;;;;6.64;100.00;101282.31;5045317;28;20431;-84
2024/03/20 01:00:46;;;;;;;18.92;9.90;;;;;;;6.57;100.00;101278.06;5059140;28;20428;-85
2024/03/20 01:03:15;;;;;;;17.25;9.45;;;;;;;6.58;100.00;101279.72;5045571;28;20435;-84
2024/03/20 01:05:42;;;;;;;16.33;9.52;;;;;;;6.69;100.00;101267.25;5047414;28;20447;-85
2024/03/20 01:08:10;;;;;;;16.80;9.63;;;;;;;6.66;100.00;101275.81;5046793;28;20419;-84
2024/03/20 01:10:37;;;;;;;15.25;9.30;;;;;;;6.64;100.00;101273.34;5048588;28;20432;-85
2024/03/20 01:13:05;;;;;;;18.02;9.40;;;;;;;6.56;100.00;101273.72;5060840;28;20419;-85
2024/03/20 01:15:32;;;;;;;14.70;9.50;;;;;;;6.53;100.00;101282.31;5047582;28;20430;-85
2024/03/20 01:18:00;;;;;;;17.40;9.02;;;;;;;6.48;100.00;101277.63;5049407;28;20482;-86
2024/03/20 01:20:29;;;;;;;16.83;9.70;;;;;;;6.29;100.00;101274.25;5060037;28;20772;-84
2024/03/20 01:22:58;;;;;;;15.30;9.40;;;;;;;6.24;100.00;101269.56;5058118;28;20975;-85
2024/03/20 01:25:26;;;;;;;17.70;9.60;;;;;;;6.27;100.00;101269.06;5043352;28;20767;-85
2024/03/20 01:27:53;;;;;;;16.50;9.30;;;;;;;6.20;100.00;101273.78;5059102;28;20428;-84
2024/03/20 01:30:21;;;;;;;20.33;10.07;;;;;;;6.21;100.00;101274.59;5048946;28;20419;-86
2024/03/20 01:32:48;;;;;;;16.13;9.40;;;;;;;6.14;100.00;101266.59;5049317;28;20427;-85
2024/03/20 01:35:16;;;;;;;17.47;9.73;;;;;;;6.12;100.00;101266.84;5047439;28;20421;-85
2024/03/20 01:37:45;;;;;;;19.92;10.27;;;;;;;6.18;100.00;101272.38;5049514;28;20432;-84
2024/03/20 01:40:13;;;;;;;17.93;10.27;;;;;;;6.20;100.00;101273.78;5062050;28;20425;-85
2024/03/20 01:42:40;;;;;;;16.23;9.60;;;;;;;6.17;100.00;101266.13;5060109;28;20420;-84
2024/03/20 01:45:13;;;;;;;18.42;9.98;;;;;;;6.22;100.00;101268.94;5063092;28;20420;-85
2024/03/20 01:47:40;;;;;;;17.30;9.90;;;;;;;6.23;100.00;101267.09;5045006;28;20440;-85
2024/03/20 01:50:09;;;;;;;16.92;9.90;;;;;;;6.20;100.00;101262.97;5048862;28;21092;-84
2024/03/20 01:52:50;;;;;;;17.88;9.18;;;;;;;6.22;100.00;101268.13;5043087;28;20894;-85
2024/03/20 01:55:20;;;;;;;16.75;9.82;;;;;;;6.22;100.00;101268.94;5061706;28;21045;-85
2024/03/20 01:57:48;;;;;;;18.27;10.20;;;;;;;6.19;100.00;101265.91;5064203;28;20416;-84
2024/03/20 02:00:21;;;;;;;16.30;9.70;;;;;;;6.11;100.00;101264.38;5043295;28;20432;-84
2024/03/20 02:02:50;;;;;;;17.33;9.98;;;;;;;6.09;100.00;101272.72;5047986;28;20442;-85
2024/03/20 02:05:18;;;;;;;15.88;9.73;;;;;;;6.18;100.00;101265.06;5061861;28;20415;-84
2024/03/20 02:07:46;;;;;;;17.58;10.25;;;;;;;6.10;100.00;101268.97;5046831;28;20416;-84
2024/03/20 02:10:14;;;;;;;19.17;10.35;;;;;;;6.06;100.00;101266.97;5062514;28;20408;-84
2024/03/20 02:12:42;;;;;;;19.33;9.95;;;;;;;6.09;100.00;101272.72;5051679;28;20423;-85
2024/03/20 02:15:12;;;;;;;17.35;10.27;;;;;;;6.05;100.00;101268.00;5049264;28;20450;-85
2024/03/20 02:17:40;;;;;;;17.35;9.68;;;;;;;6.08;100.00;101268.38;5066825;28;20435;-84
2024/03/20 02:20:09;;;;;;;17.92;10.30;;;;;;;6.15;100.00;101270.97;5052155;28;20438;-84
2024/03/20 02:22:40;;;;;;;17.08;10.00;;;;;;;6.11;100.00;101275.19;5047985;28;20904;-84
2024/03/20 02:25:08;;;;;;;17.45;10.02;;;;;;;6.13;100.00;101265.78;5065396;28;20428;-84
2024/03/20 02:27:36;;;;;;;17.38;10.38;;;;;;;6.11;100.00;101265.19;5046207;28;20428;-84
2024/03/20 02:30:05;;;;;;;16.73;9.83;;;;;;;6.11;100.00;101262.50;5066037;28;20415;-84
2024/03/20 02:32:32;;;;;;;16.98;10.27;;;;;;;6.13;100.00;101262.25;5061840;28;20424;-84
2024/03/20 02:35:00;;;;;;;19.67;10.32;;;;;;;6.15;100.00;101256.63;5059033;28;20421;-84
2024/03/20 02:37:27;;;;;;;17.92;10.23;;;;;;;6.17;100.00;101266.13;5040801;28;20428;-85
2024/03/20 02:39:56;;;;;;;17.38;10.00;;;;;;;6.12;100.00;101266.84;5047365;28;20441;-84
2024/03/20 02:42:24;;;;;;;17.55;10.07;;;;;;;6.11;100.00;101275.19;5065330;28;20408;-84
2024/03/20 02:44:53;;;;;;;19.23;10.17;;;;;;;6.09;100.00;101270.03;5061684;28;20438;-84
2024/03/20 02:47:20;;;;;;;19.42;11.15;;;;;;;6.09;100.00;101272.72;5051711;28;20431;-84
2024/03/20 02:49:48;;;;;;;17.33;10.10;;;;;;;6.14;100.00;101269.31;5052597;28;20479;-85
2024/03/20 02:52:18;;;;;;;17.52;10.07;;;;;;;6.17;100.00;101276.94;5066343;28;20430;-84
2024/03/20 02:54:45;;;;;;;17.95;10.32;;;;;;;6.17;100.00;101268.03;5044820;28;20877;-84
2024/03/20 02:57:14;;;;;;;16.80;10.20;;;;;;;6.20;100.00;101273.78;5045263;28;20412;-84
2024/03/20 02:59:41;;;;;;;18.43;10.20;;;;;;;6.06;100.00;101281.31;5056830;28;20417;-84
2024/03/20 03:02:08;;;;;;;17.90;10.30;;;;;;;6.15;100.00;101272.84;5062283;28;21455;-83
2024/03/20 03:04:37;;;;;;;18.13;10.23;;;;;;;6.13;100.00;101273.91;5060680;28;20893;-84
2024/03/20 03:07:05;;;;;;;18.98;11.00;;;;;;;6.15;100.00;101270.16;5061467;28;20422;-84
2024/03/20 03:09:33;;;;;;;20.85;10.95;;;;;;;6.08;100.00;101254.06;5061241;28;21215;-83
2024/03/20 03:12:02;;;;;;;19.10;10.43;;;;;;;6.06;100.00;101254.28;5062815;28;20436;-84
2024/03/20 03:14:31;;;;;;;19.25;10.13;;;;;;;6.05;100.00;101244.53;5046164;28;20427;-84
2024/03/20 03:16:59;;;;;;;17.50;10.68;;;;;;;5.91;100.00;101249.31;5053145;28;20424;-84
2024/03/20 03:19:26;;;;;;;16.63;10.53;;;;;;;6.07;100.00;101265.91;5060831;28;20428;-83
2024/03/20 03:21:54;;;;;;;19.65;10.18;;;;;;;6.05;100.00;101251.78;5057443;28;20406;-85
2024/03/20 03:24:21;;;;;;;16.95;10.23;;;;;;;6.08;100.00;101252.16;5064502;28;20751;-85
2024/03/20 03:26:49;;;;;;;18.17;10.47;;;;;;;6.07;100.00;101253.22;5040055;28;20414;-84
2024/03/20 03:29:16;;;;;;;20.13;10.52;;;;;;;6.05;100.00;101246.38;5045616;28;20466;-85
2024/03/20 03:31:45;;;;;;;19.00;10.07;;;;;;;6.05;100.00;101258.03;5059784;28;20428;-84
2024/03/20 03:34:13;;;;;;;16.75;9.82;;;;;;;6.06;100.00;101256.16;5061333;28;20838;-84
2024/03/20 03:36:40;;;;;;;18.33;10.70;;;;;;;6.01;100.00;101251.47;5061054;28;20467;-84
2024/03/20 03:39:08;;;;;;;18.88;10.80;;;;;;;6.00;100.00;101247.09;5061033;28;20420;-84
2024/03/20 03:41:35;;;;;;;17.52;10.43;;;;;;;5.96;100.00;101243.19;5064714;28;20412;-84
2024/03/20 03:44:04;;;;;;;16.30;10.38;;;;;;;6.04;100.00;101250.19;5064004;28;20421;-85
2024/03/20 03:46:31;;;;;;;17.23;10.52;;;;;;;5.93;100.00;101247.19;5057165;28;20802;-84
2024/03/20 03:49:00;;;;;;;17.88;10.20;;;;;;;6.01;100.00;101234.41;5051978;28;20430;-84
2024/03/20 03:51:28;;;;;;;18.08;10.43;;;;;;;5.99;100.00;101244.66;5044525;28;20758;-84
2024/03/20 03:53:55;;;;;;;15.95;9.90;;;;;;;6.00;100.00;101249.00;5046992;28;20432;-84
2024/03/20 03:56:22;;;;;;;19.13;10.60;;;;;;;6.01;100.00;101256.88;5052176;28;20423;-85
2024/03/20 03:58:50;;;;;;;16.48;10.20;;;;;;;6.07;100.00;101247.00;5043728;28;20888;-84
2024/03/20 04:01:17;;;;;;;18.25;10.00;;;;;;;5.95;100.00;101245.09;5062177;28;20418;-83
2024/03/20 04:03:45;;;;;;;17.20;10.77;;;;;;;5.92;100.00;101247.44;5044976;28;20436;-84
2024/03/20 04:06:14;;;;;;;17.08;10.55;;;;;;;5.96;100.00;101246.72;5045372;28;20412;-84
2024/03/20 04:08:42;;;;;;;17.00;10.57;;;;;;;5.94;100.00;101245.34;5038642;28;20418;-84
2024/03/20 04:11:09;;;;;;;18.63;10.60;;;;;;;5.90;100.00;101241.44;5063449;28;20416;-84
2024/03/20 04:13:37;;;;;;;18.93;10.43;;;;;;;5.93;100.00;101243.69;5059399;28;20765;-85
2024/03/20 04:16:05;;;;;;;17.10;10.50;;;;;;;5.91;100.00;101235.81;5048702;28;20427;-85
2024/03/20 04:18:32;;;;;;;16.83;10.50;;;;;;;5.92;100.00;101242.03;5063261;28;20421;-85
2024/03/20 04:20:59;;;;;;;20.20;10.73;;;;;;;5.84;100.00;101247.78;5059824;28;20419;-86
2024/03/20 04:23:28;;;;;;;17.15;10.55;;;;;;;5.84;100.00;101237.81;5062453;28;20434;-84
2024/03/20 04:25:56;;;;;;;17.05;10.00;;;;;;;5.87;100.00;101240.03;5040315;28;20781;-84
2024/03/20 04:28:23;;;;;;;17.65;10.38;;;;;;;5.78;100.00;101238.72;5061575;28;20418;-83
2024/03/20 04:30:52;;;;;;;17.37;10.73;;;;;;;5.75;100.00;101244.59;5058777;28;20443;-83
2024/03/20 04:33:20;;;;;;;17.42;10.27;;;;;;;5.82;100.00;101226.41;5046545;28;20431;-85
2024/03/20 04:35:47;;;;;;;20.50;11.20;;;;;;;5.78;100.00;101238.72;5059792;28;20413;-84
2024/03/20 04:38:15;;;;;;;18.90;11.20;;;;;;;5.79;100.00;101245.78;5040308;28;20423;-83
2024/03/20 04:40:44;;;;;;;17.30;10.60;;;;;;;5.82;100.00;101242.63;5039575;28;20425;-85
2024/03/20 04:43:11;;;;;;;17.98;10.55;;;;;;;5.78;100.00;101244.94;5046848;28;20420;-85
2024/03/20 04:45:39;;;;;;;18.65;10.80;;;;;;;5.81;100.00;101238.25;5060809;28;20422;-84
2024/03/20 04:48:06;;;;;;;17.58;10.77;;;;;;;5.85;100.00;101241.31;5060945;28;20887;-84
2024/03/20 04:50:34;;;;;;;20.42;11.43;;;;;;;5.85;100.00;101246.72;5042523;28;20423;-84
2024/03/20 04:53:01;;;;;;;19.52;10.88;;;;;;;5.88;100.00;101249.78;5063560;28;20428;-83
2024/03/20 04:55:29;;;;;;;17.00;10.68;;;;;;;5.89;100.00;101248.72;5066114;28;20404;-85
2024/03/20 04:57:58;;;;;;;19.48;11.18;;;;;;;5.89;100.00;101251.41;5045758;28;20427;-85
2024/03/20 05:00:25;;;;;;;18.83;10.82;;;;;;;5.88;100.00;101254.34;5051725;28;20420;-84
2024/03/20 05:02:51;;;;;;;17.77;10.47;;;;;;;5.90;100.00;101252.25;5046378;28;20432;-84
2024/03/20 05:05:19;;;;;;;18.40;10.70;;;;;;;5.92;100.00;101242.03;5050751;28;20420;-84
2024/03/20 05:07:46;;;;;;;19.70;10.88;;;;;;;5.87;100.00;101245.44;5057774;28;20425;-84
2024/03/20 05:10:14;;;;;;;18.67;11.02;;;;;;;5.90;100.00;101244.97;5068118;28;20419;-85
2024/03/20 05:12:42;;;;;;;19.85;10.75;;;;;;;5.90;100.00;101242.25;5050563;28;21009;-84
2024/03/20 05:15:11;;;;;;;20.38;11.15;;;;;;;5.90;100.00;101239.56;5067171;28;20409;-85
2024/03/20 05:17:39;;;;;;;18.52;10.98;;;;;;;5.99;100.00;101252.75;5062527;28;20417;-84
2024/03/20 05:20:09;;;;;;;15.93;9.93;;;;;;;5.98;100.00;101251.09;5065769;28;20419;-85
2024/03/20 05:22:36;;;;;;;17.80;10.15;;;;;;;5.93;100.00;101258.00;5063234;28;20408;-84
2024/03/20 05:25:04;;;;;;;17.10;10.25;;;;;;;5.90;100.00;101260.38;5052231;28;20422;-84
2024/03/20 05:27:30;;;;;;;18.70;10.20;;;;;;;5.89;100.00;101261.41;5060113;28;20420;-84
2024/03/20 05:29:57;;;;;;;19.55;10.98;;;;;;;5.88;100.00;101257.06;5049415;28;20421;-84
2024/03/20 05:32:25;;;;;;;19.30;11.55;;;;;;;5.86;100.00;101257.28;5065444;28;20419;-84
2024/03/20 05:34:53;;;;;;;20.40;11.45;;;;;;;5.91;100.00;101256.59;5047307;28;20443;-84
2024/03/20 05:37:19;;;;;;;21.48;12.60;;;;;;;5.83;100.00;101254.22;5049421;28;20421;-85
2024/03/20 05:39:47;;;;;;;19.25;12.40;;;;;;;5.87;100.00;101256.25;5053664;28;20423;-85
2024/03/20 05:42:13;;;;;;;20.52;11.80;;;;;;;5.96;100.00;101248.59;5062006;28;20431;-85
2024/03/20 05:44:41;;;;;;;18.05;11.25;;;;;;;5.95;100.00;101252.34;5076121;28;20436;-84
2024/03/20 05:47:07;;;;;;;19.08;11.73;;;;;;;5.93;100.00;101254.47;5062214;28;20408;-84
2024/03/20 05:49:36;;;;;;;22.48;12.07;;;;;;;5.74;100.00;101256.47;5062641;28;20419;-84
2024/03/20 05:52:03;;;;;;;18.70;11.30;;;;;;;5.75;100.00;101256.22;5049191;28;20417;-84
2024/03/20 05:54:30;;;;;;;22.25;11.43;;;;;;;5.72;100.00;101259.41;5048987;28;20445;-84
2024/03/20 05:56:57;;;;;;;18.17;11.13;;;;;;;5.91;100.00;101245.78;5059447;28;20414;-86
2024/03/20 05:59:24;;;;;;;21.15;11.60;;;;;;;5.92;100.00;101255.53;5051555;28;20874;-84
2024/03/20 06:01:51;;;;;;;20.67;11.37;;;;;;;5.92;100.00;101252.84;5060046;28;20413;-83
2024/03/20 06:04:19;;;;;;;20.73;11.23;;;;;;;5.98;100.00;101261.91;5066257;28;20427;-85
2024/03/20 06:06:46;;;;;;;17.27;10.73;;;;;;;6.01;100.00;101277.63;5043901;28;20425;-84
2024/03/20 06:09:14;;;;;;;16.77;10.85;;;;;;;6.03;100.00;101280.94;5063392;28;20409;-85
2024/03/20 06:11:42;;;;;;;17.88;10.60;;;;;;;6.04;100.00;101294.22;5064892;28;20415;-85
2024/03/20 06:14:10;;;;;;;21.73;11.20;;;;;;;6.07;100.00;101301.03;5063775;28;20426;-84
2024/03/20 06:16:36;;;;;;;18.42;11.02;;;;;;;6.03;100.00;101289.06;5068720;28;20755;-84
2024/03/20 06:19:04;;;;;;;17.55;11.05;;;;;;;6.10;100.00;101292.47;5052250;28;20424;-84
2024/03/20 06:21:31;;;;;;;20.58;11.75;;;;;;;5.99;100.00;101285.19;5051346;28;20903;-84
2024/03/20 06:24:01;;;;;;;20.73;12.38;;;;;;;6.00;100.00;101295.75;5058404;28;20423;-84
2024/03/20 06:26:27;;;;;;;20.73;13.23;;;;;;;6.01;100.00;101286.59;5061650;28;20419;-84
2024/03/20 06:28:55;;;;;;;22.33;12.40;;;;;;;5.96;100.00;101281.84;5061876;28;20412;-84
2024/03/20 06:31:21;;;;;;;19.83;12.10;;;;;;;5.75;100.00;101287.81;5046036;28;20432;-85
2024/03/20 06:33:49;;;;;;;21.98;13.10;;;;;;;5.68;100.00;101287.94;5043439;28;20425;-84
2024/03/20 06:36:16;;;;;;;25.00;12.98;;;;;;;5.58;100.00;101287.69;5065679;28;20792;-83
2024/03/20 06:38:43;;;;;;;22.92;13.20;;;;;;;5.57;100.00;101286.84;5061319;28;20793;-83
2024/03/20 06:41:13;;;;;;;22.77;13.05;;;;;;;5.67;100.00;101280.88;5009277;28;20431;-83
2024/03/20 06:43:41;;;;;;;23.10;13.68;;;;;;;5.78;100.00;101285.47;5049203;28;20899;-84
2024/03/20 06:46:08;;;;;;;23.33;13.57;;;;;;;5.67;100.00;101283.56;5048775;28;20439;-81
2024/03/20 06:48:36;;;;;;;23.08;13.15;;;;;;;5.77;100.00;101278.44;5024335;28;20423;-84
2024/03/20 06:51:05;;;;;;;24.15;14.00;;;;;;;5.74;100.00;101284.28;5023543;28;20428;-82
2024/03/20 06:53:34;;;;;;;23.60;13.57;;;;;;;5.73;100.00;101281.81;5019799;28;20435;-82
2024/03/20 06:56:02;;;;;;;23.65;13.77;;;;;;;5.70;100.00;101290.38;5039552;28;20955;-82
2024/03/20 06:58:30;;;;;;;25.13;13.77;;;;;;;5.68;100.00;101290.63;5029607;28;20419;-83
2024/03/20 07:00:57;;;;;;;23.13;13.48;;;;;;;5.78;100.00;101296.25;5025473;28;20446;-83
2024/03/20 07:03:25;;;;;;;21.85;12.98;;;;;;;5.95;100.00;101301.00;5027690;28;20780;-83
2024/03/20 07:05:52;;;;;;;20.40;12.50;;;;;;;5.94;100.00;101293.97;5042349;28;20907;-83
2024/03/20 07:08:19;;;;;;;22.10;12.88;;;;;;;6.10;100.00;101306.81;5028293;28;20434;-84
2024/03/20 07:10:46;;;;;;;20.27;12.18;;;;;;;6.24;100.00;101306.56;5027205;28;20442;-83
2024/03/20 07:13:14;;;;;;;21.88;12.77;;;;;;;6.30;100.00;101311.03;5042158;28;20439;-83
2024/03/20 07:15:43;;;;;;;21.70;13.00;;;;;;;6.29;100.00;101309.38;5038837;28;20430;-82
2024/03/20 07:18:10;;;;;;;21.60;13.10;;;;;;;6.27;100.00;101306.91;5037701;28;20407;-85
2024/03/20 07:20:37;;;;;;;20.23;12.27;;;;;;;6.25;100.00;101306.31;5043537;28;21327;-83
2024/03/20 07:23:04;;;;;;;24.20;13.02;;;;;;;6.28;100.00;101313.13;5041665;28;20454;-82
2024/03/20 07:25:31;;;;;;;21.90;13.27;;;;;;;6.37;100.00;101316.31;5038982;28;20439;-80
2024/03/20 07:27:59;;;;;;;21.33;13.07;;;;;;;6.33;100.00;101328.66;5038383;28;20427;-80
2024/03/20 07:30:25;;;;;;;21.75;13.38;;;;;;;6.35;100.00;101323.84;5021050;28;20420;-81
2024/03/20 07:32:54;;;;;;;21.00;13.02;;;;;;;6.39;100.00;101325.00;5035858;28;21079;-80
2024/03/20 07:35:23;;;;;;;21.08;12.98;;;;;;;6.42;100.00;101319.97;5038238;28;20416;-80
2024/03/20 07:37:51;;;;;;;21.37;13.10;;;;;;;6.53;100.00;101322.88;5040531;28;20419;-81
2024/03/20 07:40:17;;;;;;;21.20;12.52;;;;;;;6.57;100.00;101324.91;5022809;28;21010;-80
2024/03/20 07:42:45;;;;;;;21.08;13.02;;;;;;;6.57;100.00;101313.22;5012235;28;20427;-82
2024/03/20 07:45:11;;;;;;;21.73;13.40;;;;;;;6.57;100.00;101318.66;5026819;28;20426;-81
2024/03/20 07:47:40;;;;;;;21.55;13.52;;;;;;;6.55;100.00;101308.06;5041890;28;20419;-80
2024/03/20 07:50:10;;;;;;;25.95;14.38;;;;;;;6.23;100.00;101313.84;5045467;28;20435;-80
2024/03/20 07:52:38;;;;;;;22.40;13.70;;;;;;;6.13;100.00;101319.00;5042795;28;20411;-80
2024/03/20 07:55:06;;;;;;;21.73;13.82;;;;;;;6.11;100.00;101313.84;5024370;28;20439;-80
2024/03/20 07:57:34;;;;;;;22.30;14.17;;;;;;;6.09;100.00;101302.44;5035044;28;20937;-80
2024/03/20 08:00:00;;;;;;;24.52;14.30;;;;;;;6.10;100.00;101303.25;5040632;28;20427;-80
2024/03/20 08:02:38;;;;;;;23.48;14.35;;;;;;;6.30;100.00;101309.16;5043688;28;20419;-80
2024/03/20 08:05:06;;;;;;;23.30;14.75;;;;;;;6.25;100.00;101314.44;5038393;28;20438;-80
2024/03/20 08:07:35;;;;;;;24.85;15.20;;;;;;;6.50;100.00;101310.66;5039297;28;20764;-80
2024/03/20 08:10:02;;;;;;;21.00;13.88;;;;;;;6.74;100.00;101319.56;5026950;28;21176;-81
2024/03/20 08:12:29;;;;;;;21.50;13.82;;;;;;;6.84;100.00;101318.94;5043002;28;20435;-80
2024/03/20 08:14:55;;;;;;;21.20;13.70;;;;;;;6.89;100.00;101319.06;5038461;28;20427;-80
2024/03/20 08:17:24;;;;;;;22.70;13.63;;;;;;;6.92;100.00;101318.59;5039933;28;20427;-80
2024/03/20 08:19:50;;;;;;;21.15;13.40;;;;;;;7.00;100.00;101317.38;5039526;28;20428;-80
2024/03/20 08:22:18;;;;;;;21.70;13.80;;;;;;;6.86;100.00;101318.72;5021914;28;20438;-80
2024/03/20 08:24:46;;;;;;;21.85;13.95;;;;;;;6.68;100.00;101327.81;5040730;28;20411;-80
2024/03/20 08:27:14;;;;;;;22.67;14.52;;;;;;;6.60;100.00;101318.16;5038637;28;20424;-80
2024/03/20 08:29:40;;;;;;;24.17;14.15;;;;;;;6.86;100.00;101316.81;5025051;28;20468;-81
2024/03/20 08:32:09;;;;;;;22.00;14.07;;;;;;;6.94;100.00;101318.34;5022738;28;20526;-79
2024/03/20 08:34:35;;;;;;;21.95;14.10;;;;;;;7.00;100.00;101321.97;5036313;28;20427;-80
2024/03/20 08:37:03;;;;;;;23.65;14.20;;;;;;;6.85;100.00;101322.47;5034505;28;20419;-80
2024/03/20 08:39:29;;;;;;;25.33;14.52;;;;;;;6.99;100.00;101331.97;5036137;28;20423;-80
2024/03/20 08:41:58;;;;;;;25.77;14.18;;;;;;;7.23;100.00;101334.59;5023735;28;20408;-81
2024/03/20 08:44:25;;;;;;;22.33;13.95;;;;;;;7.37;100.00;101335.13;5019051;28;20435;-79
2024/03/20 08:46:52;;;;;;;22.00;13.48;;;;;;;7.43;100.00;101336.84;5040216;28;20438;-79
2024/03/20 08:49:19;;;;;;;22.23;13.80;;;;;;;7.50;100.00;101340.25;5022859;28;21023;-80
2024/03/20 08:51:47;;;;;;;21.65;14.27;;;;;;;7.54;100.00;101332.47;5024290;28;20430;-80
2024/03/20 08:54:14;;;;;;;23.52;14.50;;;;;;;7.59;100.00;101327.13;5039334;28;20426;-80
2024/03/20 08:56:41;;;;;;;23.38;14.40;;;;;;;7.85;100.00;101333.00;5025556;28;20411;-81
2024/03/20 08:59:10;;;;;;;24.67;15.07;;;;;;;7.79;100.00;101323.97;5053448;28;20427;-80
2024/03/20 09:01:37;;;;;;;23.70;14.07;;;;;;;8.09;100.00;101325.53;5043495;28;20896;-79
2024/03/20 09:04:04;;;;;;;24.20;14.50;;;;;;;8.08;100.00;101334.72;5022482;28;20412;-79
2024/03/20 09:06:31;;;;;;;22.30;14.45;;;;;;;8.26;100.00;101330.94;5018703;28;20435;-80
2024/03/20 09:08:58;;;;;;;26.52;14.98;;;;;;;8.44;100.00;101329.84;5035522;28;20423;-80
2024/03/20 09:11:25;;;;;;;24.10;14.40;;;;;;;8.47;100.00;101330.19;5018515;28;20427;-80
2024/03/20 09:13:52;;;;;;;26.40;14.75;;;;;;;8.48;100.00;101325.59;5019988;28;20420;-80
2024/03/20 09:16:20;;;;;;;25.50;14.77;;;;;;;8.66;100.00;101329.91;5035691;28;20430;-81
2024/03/20 09:18:47;;;;;;;24.23;14.75;;;;;;;8.79;100.00;101323.28;5035763;28;20411;-80
2024/03/20 09:21:14;;;;;;;25.77;15.00;;;;;;;8.94;100.00;101330.81;5019201;28;20427;-79
2024/03/20 09:23:41;;;;;;;27.17;14.63;;;;;;;9.04;100.00;101338.25;5036042;28;20423;-80
2024/03/20 09:26:08;;;;;;;23.92;14.55;;;;;;;8.99;100.00;101330.84;5016991;28;20436;-81
2024/03/20 09:28:36;;;;;;;25.00;15.60;;;;;;;9.27;100.00;101329.84;5047619;28;20434;-80
2024/03/20 09:31:03;;;;;;;23.17;13.93;;;;;;;9.41;100.00;101332.16;5040500;28;20422;-80
2024/03/20 09:33:32;;;;;;;26.45;15.18;;;;;;;9.42;100.00;101329.19;5045596;28;20427;-81
2024/03/20 09:35:59;;;;;;;23.67;14.48;;;;;;;9.47;100.00;101331.13;5037563;28;20477;-78
2024/03/20 09:38:27;;;;;;;24.80;14.93;;;;;;;9.62;100.00;101327.72;5032711;28;20419;-80
2024/03/20 09:40:57;;;;;;;25.73;15.20;;;;;;;9.45;100.00;101328.66;5033885;28;21254;-81
2024/03/20 09:43:24;;;;;;;26.92;15.55;;;;;;;9.59;100.00;101325.53;4983636;28;20444;-80
2024/03/20 09:45:53;;;;;;;29.63;14.90;;;;;;;9.62;100.00;101325.81;5021748;28;20439;-80
2024/03/20 09:48:21;;;;;;;25.67;15.33;;;;;;;9.71;100.00;101328.91;5037282;28;20431;-80
2024/03/20 09:50:49;;;;;;;26.65;16.23;;;;;;;9.78;100.00;101326.78;5021523;28;20422;-79
2024/03/20 09:53:16;;;;;;;26.40;16.02;;;;;;;10.00;100.00;101318.53;5037240;28;20446;-80
2024/03/20 09:55:45;;;;;;;25.50;14.80;;;;;;;9.98;100.00;101317.97;5043879;28;20416;-80
2024/03/20 09:58:14;;;;;;;24.42;14.85;;;;;;;10.08;100.00;101317.25;5023800;28;20540;-82
2024/03/20 10:00:40;;;;;;;28.00;15.38;;;;;;;10.34;100.00;101317.41;5026018;28;20470;-82
2024/03/20 10:03:10;;;;;;;23.77;14.95;;;;;;;10.45;100.00;101316.41;5020275;28;20434;-80
2024/03/20 10:05:40;;;;;;;27.45;16.20;;;;;;;10.69;100.00;101319.56;5037843;28;21341;-80
2024/03/20 10:08:12;;;;;;;24.20;14.75;;;;;;;10.57;100.00;101312.69;5029167;28;21085;-81
2024/03/20 10:10:42;;;;;;;24.13;14.38;;;;;;;10.53;100.00;101310.47;5042767;28;20423;-81
2024/03/20 10:13:13;;;;;;;26.55;14.32;;;;;;;10.67;100.00;101316.25;5042941;28;20427;-80
2024/03/20 10:15:39;;;;;;;25.02;15.20;;;;;;;10.70;100.00;101317.63;5039387;28;20423;-81
2024/03/20 10:18:07;;;;;;;23.45;14.75;;;;;;;10.77;100.00;101312.78;5035256;28;20419;-79
2024/03/20 10:20:35;;;;;;;24.42;15.45;;;;;;;10.87;100.00;101323.72;5024140;28;20446;-82
2024/03/20 10:23:03;;;;;;;25.80;16.27;;;;;;;10.98;100.00;101312.84;5023876;28;21079;-81
2024/03/20 10:25:31;;;;;;;24.92;15.85;;;;;;;11.06;100.00;101315.91;5042350;28;20419;-80
2024/03/20 10:27:59;;;;;;;31.23;17.30;;;;;;;11.03;100.00;101323.78;5023510;28;21156;-80
2024/03/20 10:30:27;;;;;;;28.65;15.90;;;;;;;11.03;100.00;101318.31;5043841;28;20435;-82
2024/03/20 10:32:54;;;;;;;31.20;16.40;;;;;;;11.16;100.00;101315.09;5021301;28;20525;-81
2024/03/20 10:35:23;;;;;;;30.50;17.08;;;;;;;11.15;100.00;101315.38;5026011;28;20426;-80
2024/03/20 10:37:51;;;;;;;24.80;15.13;;;;;;;11.47;100.00;101312.44;5014383;28;20438;-80
2024/03/20 10:40:19;;;;;;;27.73;15.68;;;;;;;11.40;100.00;101304.53;5031412;28;20461;-80
2024/03/20 10:42:50;;;;;;;28.83;17.42;;;;;;;11.56;100.00;101307.28;5019783;28;20419;-81
2024/03/20 10:45:17;;;;;;;27.55;17.00;;;;;;;11.48;100.00;101305.91;5040377;28;20412;-81
2024/03/20 10:47:46;;;;;;;26.45;16.30;;;;;;;11.72;100.00;101319.84;5024070;28;20908;-80
2024/03/20 10:50:14;;;;;;;27.38;17.17;;;;;;;11.90;100.00;101310.31;5029295;28;20430;-81
2024/03/20 10:52:42;;;;;;;29.38;17.83;;;;;;;11.84;100.00;101314.09;5025059;28;20424;-80
2024/03/20 10:55:11;;;;;;;29.98;18.33;;;;;;;11.91;100.00;101303.72;5028894;28;20427;-80
2024/03/20 10:57:39;;;;;;;29.88;19.45;;;;;;;12.11;100.00;101302.13;5042477;28;20415;-81
2024/03/20 11:00:15;;;;;;;32.97;19.80;;;;;;;12.37;100.00;101307.53;5037411;28;20428;-81
2024/03/20 11:02:42;;;;;;;31.70;18.92;;;;;;;12.55;100.00;101301.50;5035818;28;20423;-81
2024/03/20 11:05:36;;;;;;;31.60;19.55;;;;;;;12.63;100.00;101307.47;5021234;28;20439;-80
2024/03/20 11:08:07;;;;;;;34.03;20.33;;;;;;;12.54;100.00;101304.47;5043720;28;21077;-81
2024/03/20 11:10:34;;;;;;;37.70;21.85;;;;;;;12.55;100.00;101301.50;5042004;28;20423;-81
2024/03/20 11:13:02;;;;;;;35.63;21.48;;;;;;;12.58;100.00;101297.38;5041605;28;20428;-81